Terminal Aerodrome Forecast
Issued by NWS Newport/Morehead City, NC

Home | Current Version | Previous Version | Text Only | Print | Product List | Glossary On
Versions: 1 2 3 4 5 6 7 8 9 10 11 12 13 14 15 16 17 18 19 20 21
000
FTUS42 KMHX 260536
TAFEWN
TAF
KEWN 260536Z 2606/2706 VRB04KT P6SM SCT030
     FM260700 VRB03KT P6SM BKN020
     FM260900 VRB03KT 4SM BR BKN007
     FM261300 VRB04KT P6SM SCT007 BKN015
     FM261500 28008KT P6SM SCT040=

USA.gov is the U.S. government's official web portal to all federal, state and local government web resources and services.